Time;durP1;ratioP1;P1;durP2;ratioP2;P2;SDS_P1;SDS_P2;PMS_P1;PMS_P2;Temp;Humidity;BMP_temperature;BMP_pressure;BME280_temperature;BME280_humidity;BME280_pressure;Samples;Min_cycle;Max_cycle;Signal;HPM_P1;HPM_P2
2021/09/04 00:02:11;0.00;0.00;0.62;0.00;0.00;0.62;7.47;6.40;;;26.20;33.20;;;;;;2264814;61;20377;-60
2021/09/04 00:04:56;0.00;0.00;0.62;0.00;0.00;0.62;9.97;7.53;;;26.20;33.20;;;;;;2265843;61;20361;-60
2021/09/04 00:07:41;0.00;0.00;0.62;0.00;0.00;0.62;7.50;6.70;;;26.20;33.30;;;;;;2265873;61;20357;-60
2021/09/04 00:10:26;0.00;0.00;0.62;0.00;0.00;0.62;7.77;6.60;;;26.20;33.30;;;;;;2264562;61;20407;-61
2021/09/04 00:13:12;0.00;0.00;0.62;0.00;0.00;0.62;8.57;6.70;;;26.20;33.40;;;;;;2265846;61;20817;-59
2021/09/04 00:15:58;0.00;0.00;0.62;0.00;0.00;0.62;11.63;6.70;;;26.20;33.40;;;;;;2265336;61;20361;-60
2021/09/04 00:18:44;0.00;0.00;0.62;0.00;0.00;0.62;6.63;5.90;;;26.20;33.40;;;;;;2264828;61;20352;-58
2021/09/04 00:21:28;0.00;0.00;0.62;0.00;0.00;0.62;7.80;6.37;;;26.20;33.40;;;;;;2265674;61;20448;-60
2021/09/04 00:24:13;0.00;0.00;0.62;0.00;0.00;0.62;7.13;6.40;;;26.20;33.50;;;;;;2265265;61;20438;-60
2021/09/04 00:26:57;0.00;0.00;0.62;0.00;0.00;0.62;12.33;7.80;;;26.20;33.50;;;;;;2265784;61;20433;-60
2021/09/04 00:29:42;0.00;0.00;0.62;0.00;0.00;0.62;7.90;6.80;;;26.20;33.50;;;;;;2265661;61;20488;-60
2021/09/04 00:32:26;0.00;0.00;0.62;0.00;0.00;0.62;6.83;5.50;;;26.20;33.50;;;;;;2264560;61;20473;-59
2021/09/04 00:35:12;0.00;0.00;0.62;0.00;0.00;0.62;5.97;5.40;;;26.20;33.50;;;;;;2265878;61;20356;-60
2021/09/04 00:37:57;0.00;0.00;0.62;0.00;0.00;0.62;7.60;6.13;;;26.30;33.60;;;;;;2266374;61;20415;-60
2021/09/04 00:40:41;0.00;0.00;0.62;0.00;0.00;0.62;6.47;5.43;;;26.30;33.60;;;;;;2265268;61;20388;-60
2021/09/04 00:43:27;0.00;0.00;0.62;0.00;0.00;0.62;10.40;6.70;;;26.30;33.60;;;;;;2266510;61;20384;-60
2021/09/04 00:46:11;0.00;0.00;0.62;0.00;0.00;0.62;6.50;5.90;;;26.30;33.60;;;;;;2265996;61;20368;-60
2021/09/04 00:48:57;0.00;0.00;0.62;0.00;0.00;0.62;7.10;6.17;;;26.30;33.60;;;;;;2266129;61;20415;-60
2021/09/04 00:51:43;0.00;0.00;0.62;0.00;0.00;0.62;7.60;5.33;;;26.30;33.60;;;;;;2266245;61;20412;-60
2021/09/04 00:54:28;0.00;0.00;0.62;0.00;0.00;0.62;8.43;5.50;;;26.30;33.60;;;;;;2265380;61;20365;-61
2021/09/04 00:57:13;0.00;0.00;0.62;0.00;0.00;0.62;7.93;6.60;;;26.30;33.60;;;;;;2266481;61;20364;-60
2021/09/04 00:59:57;0.00;0.00;0.62;0.00;0.00;0.62;8.07;6.47;;;26.30;33.60;;;;;;2266341;61;20411;-60
2021/09/04 01:02:42;0.00;0.00;0.62;0.00;0.00;0.62;7.63;6.00;;;26.30;33.60;;;;;;2264434;61;20377;-60
2021/09/04 01:05:27;0.00;0.00;0.62;0.00;0.00;0.62;6.93;6.23;;;26.30;33.60;;;;;;2266461;61;20364;-60
2021/09/04 01:08:14;0.00;0.00;0.62;0.00;0.00;0.62;6.10;5.50;;;26.30;33.60;;;;;;2265973;61;20381;-60
2021/09/04 01:10:59;0.00;0.00;0.62;0.00;0.00;0.62;6.13;5.47;;;26.30;33.60;;;;;;2265777;61;20365;-60
2021/09/04 01:13:45;0.00;0.00;0.62;0.00;0.00;0.62;6.57;5.70;;;26.30;33.60;;;;;;2266384;61;20357;-60
2021/09/04 01:16:37;0.00;0.00;0.62;0.00;0.00;0.62;6.87;5.30;;;26.30;33.60;;;;;;2264953;61;20357;-60
2021/09/04 01:19:22;0.00;0.00;0.62;0.00;0.00;0.62;6.70;5.50;;;26.30;34.30;;;;;;2266175;61;20392;-60
2021/09/04 01:22:07;0.00;0.00;0.62;0.00;0.00;0.62;6.60;5.60;;;26.30;33.60;;;;;;2266275;61;20798;-60
2021/09/04 01:24:54;0.00;0.00;0.62;0.00;0.00;0.62;6.90;6.20;;;26.30;33.70;;;;;;2264984;61;20361;-61
2021/09/04 01:27:40;0.00;0.00;0.62;0.00;0.00;0.62;6.30;5.70;;;26.30;33.60;;;;;;2266179;61;20380;-60
2021/09/04 01:30:25;0.00;0.00;0.62;0.00;0.00;0.62;7.37;5.83;;;26.30;33.60;;;;;;2265695;61;20369;-61
2021/09/04 01:33:10;0.00;0.00;0.62;0.00;0.00;0.62;6.47;5.50;;;26.30;33.60;;;;;;2265773;61;20389;-60
2021/09/04 01:35:55;0.00;0.00;0.62;0.00;0.00;0.62;5.43;4.80;;;26.30;33.60;;;;;;2266366;61;20565;-60
2021/09/04 01:38:39;0.00;0.00;0.62;0.00;0.00;0.62;6.63;5.93;;;26.30;33.50;;;;;;2264996;61;20574;-60
2021/09/04 01:41:24;0.00;0.00;0.62;0.00;0.00;0.62;7.13;5.50;;;26.30;33.60;;;;;;2266190;61;20365;-60
2021/09/04 01:44:09;0.00;0.00;0.62;0.00;0.00;0.62;7.20;5.40;;;26.30;33.60;;;;;;2266465;61;20705;-60
2021/09/04 01:46:54;0.00;0.00;0.62;0.00;0.00;0.62;6.23;5.40;;;26.30;33.60;;;;;;2264929;61;20485;-60
2021/09/04 01:49:38;0.00;0.00;0.62;0.00;0.00;0.62;6.00;5.40;;;26.30;33.60;;;;;;2266000;61;20419;-60
2021/09/04 01:52:24;0.00;0.00;0.62;0.00;0.00;0.62;6.83;5.50;;;26.30;33.60;;;;;;2266103;61;20787;-60
2021/09/04 01:55:11;0.00;0.00;0.62;0.00;0.00;0.62;7.97;6.27;;;26.30;33.60;;;;;;2265368;61;20494;-60
2021/09/04 01:57:56;0.00;0.00;0.62;0.00;0.00;0.62;5.60;5.00;;;26.30;33.60;;;;;;2266254;61;20361;-60
2021/09/04 02:00:42;0.00;0.00;0.62;0.00;0.00;0.62;6.90;6.07;;;26.30;33.60;;;;;;2264838;61;20362;-60
2021/09/04 02:03:26;0.00;0.00;0.62;0.00;0.00;0.62;6.77;5.90;;;26.30;33.60;;;;;;2265869;61;20360;-60
2021/09/04 02:06:11;0.00;0.00;0.62;0.00;0.00;0.62;5.80;5.13;;;26.30;33.60;;;;;;2266181;61;20361;-60
2021/09/04 02:08:56;0.00;0.00;0.62;0.00;0.00;0.62;5.87;5.13;;;26.40;33.60;;;;;;2265145;61;20392;-60
2021/09/04 02:11:41;0.00;0.00;0.62;0.00;0.00;0.62;7.60;6.20;;;26.40;33.70;;;;;;2265930;61;20424;-60
2021/09/04 02:14:25;0.00;0.00;0.62;0.00;0.00;0.62;5.93;5.33;;;26.30;33.60;;;;;;2266151;61;20369;-60
2021/09/04 02:17:11;0.00;0.00;0.62;0.00;0.00;0.62;5.80;5.07;;;26.40;33.70;;;;;;2265229;61;20622;-60
2021/09/04 02:19:57;0.00;0.00;0.62;0.00;0.00;0.62;6.10;5.47;;;26.30;33.60;;;;;;2265989;61;20589;-60
2021/09/04 02:22:42;0.00;0.00;0.62;0.00;0.00;0.62;5.77;4.70;;;26.30;33.60;;;;;;2265008;61;20381;-60
2021/09/04 02:25:28;0.00;0.00;0.62;0.00;0.00;0.62;5.30;4.20;;;26.40;33.60;;;;;;2266161;61;20357;-60
2021/09/04 02:28:14;0.00;0.00;0.62;0.00;0.00;0.62;6.30;5.07;;;26.30;34.20;;;;;;2266130;61;20360;-61
2021/09/04 02:31:00;0.00;0.00;0.62;0.00;0.00;0.62;7.57;5.00;;;26.30;33.60;;;;;;2264608;61;20353;-61
2021/09/04 02:33:45;0.00;0.00;0.62;0.00;0.00;0.62;5.53;4.53;;;26.30;33.50;;;;;;2265744;61;20385;-61
2021/09/04 02:36:31;0.00;0.00;0.62;0.00;0.00;0.62;7.33;4.97;;;26.40;33.60;;;;;;2266247;61;20473;-60
2021/09/04 02:39:16;0.00;0.00;0.62;0.00;0.00;0.62;8.20;5.53;;;26.40;33.60;;;;;;2264853;61;20384;-61
2021/09/04 02:42:02;0.00;0.00;0.62;0.00;0.00;0.62;6.60;5.50;;;26.40;33.50;;;;;;2266147;61;20396;-60
2021/09/04 02:44:47;0.00;0.00;0.62;0.00;0.00;0.62;6.53;5.83;;;26.40;33.50;;;;;;2265182;61;20361;-60
2021/09/04 02:47:32;0.00;0.00;0.62;0.00;0.00;0.62;9.73;7.33;;;26.40;33.30;;;;;;2265700;61;20372;-60
2021/09/04 02:50:19;0.00;0.00;0.62;0.00;0.00;0.62;6.50;5.43;;;26.30;33.90;;;;;;2265879;61;20365;-60
2021/09/04 02:53:06;0.00;0.00;0.62;0.00;0.00;0.62;7.40;6.23;;;26.30;33.10;;;;;;2264565;61;20396;-60
2021/09/04 02:55:51;0.00;0.00;0.62;0.00;0.00;0.62;7.40;6.43;;;26.30;33.00;;;;;;2266095;61;20407;-60
2021/09/04 02:58:36;0.00;0.00;0.62;0.00;0.00;0.62;7.10;5.40;;;26.30;32.90;;;;;;2266262;61;20664;-60
2021/09/04 03:01:22;0.00;0.00;0.62;0.00;0.00;0.62;6.77;6.10;;;26.30;32.90;;;;;;2264702;61;20384;-60
2021/09/04 03:04:07;0.00;0.00;0.62;0.00;0.00;0.62;5.70;5.10;;;26.30;32.90;;;;;;2266118;61;20369;-60
2021/09/04 03:06:53;0.00;0.00;0.62;0.00;0.00;0.62;9.90;6.07;;;26.30;32.80;;;;;;2265623;61;20449;-60
2021/09/04 03:09:38;0.00;0.00;0.62;0.00;0.00;0.62;6.90;5.70;;;26.30;32.80;;;;;;2265987;61;20488;-60
2021/09/04 03:12:24;0.00;0.00;0.62;0.00;0.00;0.62;7.70;6.10;;;26.20;32.70;;;;;;2265934;61;20397;-59
2021/09/04 03:15:09;0.00;0.00;0.62;0.00;0.00;0.62;7.93;6.63;;;26.20;32.60;;;;;;2264624;61;20437;-60
2021/09/04 03:17:54;0.00;0.00;0.62;0.00;0.00;0.62;7.30;5.93;;;26.20;32.60;;;;;;2266055;61;20407;-60
2021/09/04 03:20:40;0.00;0.00;0.62;0.00;0.00;0.62;8.97;6.47;;;26.20;32.50;;;;;;2265768;61;20360;-60
2021/09/04 03:23:26;0.00;0.00;0.62;0.00;0.00;0.62;7.73;6.00;;;26.20;32.50;;;;;;2264877;61;20475;-60
2021/09/04 03:26:11;0.00;0.00;0.62;0.00;0.00;0.62;6.33;5.60;;;26.20;32.50;;;;;;2266019;61;20365;-60
2021/09/04 03:28:55;0.00;0.00;0.62;0.00;0.00;0.62;8.10;5.50;;;26.20;32.50;;;;;;2265623;61;20742;-59
2021/09/04 03:31:40;0.00;0.00;0.62;0.00;0.00;0.62;6.00;4.97;;;26.10;32.40;;;;;;2265601;61;20435;-59
2021/09/04 03:34:25;0.00;0.00;0.62;0.00;0.00;0.62;6.97;5.63;;;26.10;32.40;;;;;;2265890;61;20357;-59
2021/09/04 03:37:10;0.00;0.00;0.62;0.00;0.00;0.62;8.00;6.17;;;26.10;32.40;;;;;;2264696;61;20364;-59
2021/09/04 03:39:57;0.00;0.00;0.62;0.00;0.00;0.62;7.37;5.63;;;26.10;32.40;;;;;;2265780;61;20716;-60
2021/09/04 03:42:42;0.00;0.00;0.62;0.00;0.00;0.62;5.70;4.90;;;26.00;32.30;;;;;;2265894;61;20385;-60
2021/09/04 03:45:27;0.00;0.00;0.62;0.00;0.00;0.62;7.43;5.50;;;26.00;32.30;;;;;;2264265;61;20461;-60
2021/09/04 03:48:11;0.00;0.00;0.62;0.00;0.00;0.62;6.13;5.27;;;26.00;32.40;;;;;;2265914;61;20626;-59
2021/09/04 03:50:57;0.00;0.00;0.62;0.00;0.00;0.62;7.73;5.00;;;26.00;32.40;;;;;;2265430;61;20361;-60
2021/09/04 03:53:41;0.00;0.00;0.62;0.00;0.00;0.62;8.40;4.60;;;26.00;32.40;;;;;;2265160;61;20597;-60
2021/09/04 03:56:28;0.00;0.00;0.62;0.00;0.00;0.62;5.80;4.60;;;26.00;32.50;;;;;;2265879;61;20353;-60
2021/09/04 03:59:13;0.00;0.00;0.62;0.00;0.00;0.62;7.90;4.90;;;26.00;32.40;;;;;;2264622;61;20361;-59
2021/09/04 04:01:58;0.00;0.00;0.62;0.00;0.00;0.62;7.07;4.73;;;26.00;32.40;;;;;;2265778;61;20381;-60
2021/09/04 04:04:43;0.00;0.00;0.62;0.00;0.00;0.62;7.50;4.90;;;25.90;32.30;;;;;;2265973;61;20460;-59
2021/09/04 04:07:28;0.00;0.00;0.62;0.00;0.00;0.62;6.30;4.90;;;26.00;32.40;;;;;;2264607;61;20614;-59
2021/09/04 04:10:14;0.00;0.00;0.62;0.00;0.00;0.62;6.87;4.90;;;25.90;32.30;;;;;;2265573;61;20717;-59
2021/09/04 04:13:00;0.00;0.00;0.62;0.00;0.00;0.62;7.83;4.37;;;25.90;32.20;;;;;;2265727;61;20500;-60
2021/09/04 04:15:45;0.00;0.00;0.62;0.00;0.00;0.62;8.40;5.17;;;25.90;32.30;;;;;;2264973;61;20361;-59
2021/09/04 04:18:30;0.00;0.00;0.62;0.00;0.00;0.62;9.40;4.77;;;25.80;32.20;;;;;;2265817;61;20391;-59
2021/09/04 04:21:15;0.00;0.00;0.62;0.00;0.00;0.62;8.67;5.57;;;25.80;32.20;;;;;;2264455;61;20404;-59
2021/09/04 04:23:59;0.00;0.00;0.62;0.00;0.00;0.62;6.23;4.80;;;25.80;32.30;;;;;;2265803;61;20767;-59
2021/09/04 04:26:45;0.00;0.00;0.62;0.00;0.00;0.62;6.17;5.00;;;25.80;32.30;;;;;;2265904;61;20442;-60
2021/09/04 04:29:31;0.00;0.00;0.62;0.00;0.00;0.62;4.87;4.30;;;25.80;32.30;;;;;;2264446;61;20365;-60
2021/09/04 04:32:16;0.00;0.00;0.62;0.00;0.00;0.62;6.33;4.30;;;25.80;32.40;;;;;;2265661;61;20396;-60
2021/09/04 04:35:01;0.00;0.00;0.62;0.00;0.00;0.62;5.23;4.57;;;25.80;32.40;;;;;;2265789;61;20400;-59
2021/09/04 04:37:46;0.00;0.00;0.62;0.00;0.00;0.62;5.90;4.37;;;25.80;32.40;;;;;;2264413;61;20405;-59
2021/09/04 04:40:32;0.00;0.00;0.62;0.00;0.00;0.62;8.87;6.03;;;25.80;32.30;;;;;;2265686;61;20407;-59
2021/09/04 04:43:19;0.00;0.00;0.62;0.00;0.00;0.62;6.40;5.60;;;25.80;32.30;;;;;;2264593;61;20404;-59
2021/09/04 04:46:05;0.00;0.00;0.62;0.00;0.00;0.62;6.27;4.73;;;25.70;32.20;;;;;;2265631;61;20407;-59
2021/09/04 04:48:51;0.00;0.00;0.62;0.00;0.00;0.62;5.40;4.50;;;25.70;32.20;;;;;;2265826;61;20365;-60
2021/09/04 04:51:36;0.00;0.00;0.62;0.00;0.00;0.62;6.40;5.70;;;25.70;32.10;;;;;;2264205;61;20389;-60
2021/09/04 04:54:20;0.00;0.00;0.62;0.00;0.00;0.62;6.60;5.07;;;25.70;32.10;;;;;;2265776;61;20585;-60
2021/09/04 04:57:06;0.00;0.00;0.62;0.00;0.00;0.62;6.70;4.17;;;25.70;32.00;;;;;;2265682;61;20416;-59
2021/09/04 04:59:52;0.00;0.00;0.62;0.00;0.00;0.62;7.50;4.90;;;25.70;32.00;;;;;;2264415;61;20353;-59
2021/09/04 05:02:39;0.00;0.00;0.62;0.00;0.00;0.62;6.87;4.53;;;25.70;32.10;;;;;;2265685;61;20413;-60
2021/09/04 05:05:23;0.00;0.00;0.62;0.00;0.00;0.62;5.13;4.63;;;25.70;32.10;;;;;;2264965;61;20484;-60
2021/09/04 05:08:10;0.00;0.00;0.62;0.00;0.00;0.62;7.87;4.47;;;25.70;32.10;;;;;;2265745;61;20361;-60
2021/09/04 05:10:54;0.00;0.00;0.62;0.00;0.00;0.62;5.30;4.67;;;25.60;32.10;;;;;;2265125;61;20353;-59
2021/09/04 05:13:40;0.00;0.00;0.62;0.00;0.00;0.62;7.70;5.60;;;25.60;32.10;;;;;;2264377;61;20428;-60
2021/09/04 05:16:25;0.00;0.00;0.62;0.00;0.00;0.62;7.37;4.90;;;25.60;32.20;;;;;;2265673;61;20629;-60
2021/09/04 05:19:12;0.00;0.00;0.62;0.00;0.00;0.62;6.23;4.20;;;25.60;32.20;;;;;;2265590;61;20361;-60
2021/09/04 05:21:57;0.00;0.00;0.62;0.00;0.00;0.62;6.87;4.27;;;25.60;32.20;;;;;;2264410;61;20381;-60
2021/09/04 05:24:42;0.00;0.00;0.62;0.00;0.00;0.62;6.53;5.23;;;25.50;32.20;;;;;;2266253;61;20406;-59
2021/09/04 05:27:27;0.00;0.00;0.62;0.00;0.00;0.62;5.23;4.37;;;25.50;32.20;;;;;;2265836;61;20361;-60
2021/09/04 05:30:13;0.00;0.00;0.62;0.00;0.00;0.62;5.80;4.50;;;25.50;32.30;;;;;;2266310;61;20365;-62
2021/09/04 05:32:58;0.00;0.00;0.62;0.00;0.00;0.62;7.00;4.63;;;25.50;32.30;;;;;;2266271;61;20686;-60
2021/09/04 05:35:44;0.00;0.00;0.62;0.00;0.00;0.62;7.27;5.20;;;25.50;32.20;;;;;;2264772;61;20471;-59
2021/09/04 05:38:29;0.00;0.00;0.62;0.00;0.00;0.62;7.53;5.00;;;25.50;32.20;;;;;;2266387;61;20365;-60
2021/09/04 05:41:14;0.00;0.00;0.62;0.00;0.00;0.62;6.47;4.70;;;25.50;32.10;;;;;;2266058;61;20431;-60
2021/09/04 05:43:58;0.00;0.00;0.62;0.00;0.00;0.62;6.07;5.47;;;25.50;32.00;;;;;;2265125;61;20357;-59
2021/09/04 05:46:43;0.00;0.00;0.62;0.00;0.00;0.62;5.80;4.57;;;25.50;32.00;;;;;;2266317;61;20400;-60
2021/09/04 05:49:27;0.00;0.00;0.62;0.00;0.00;0.62;5.50;4.13;;;25.50;32.00;;;;;;2265818;61;20353;-60
2021/09/04 05:52:14;0.00;0.00;0.62;0.00;0.00;0.62;5.77;4.53;;;25.50;32.10;;;;;;2265999;61;20597;-60
2021/09/04 05:54:58;0.00;0.00;0.62;0.00;0.00;0.62;5.83;4.17;;;25.50;32.10;;;;;;2266146;61;20353;-60
2021/09/04 05:57:43;0.00;0.00;0.62;0.00;0.00;0.62;5.83;4.63;;;25.40;32.00;;;;;;2265049;61;20437;-60
2021/09/04 06:00:28;0.00;0.00;0.62;0.00;0.00;0.62;5.70;5.00;;;25.40;32.10;;;;;;2266208;61;20760;-60
2021/09/04 06:03:12;0.00;0.00;0.62;0.00;0.00;0.62;5.33;4.40;;;25.40;32.20;;;;;;2266110;61;20361;-60
2021/09/04 06:05:57;0.00;0.00;0.62;0.00;0.00;0.62;6.40;4.23;;;25.40;32.30;;;;;;2265093;61;20432;-60
2021/09/04 06:08:43;0.00;0.00;0.62;0.00;0.00;0.62;5.03;3.93;;;25.40;32.30;;;;;;2266207;61;20357;-60
2021/09/04 06:11:28;0.00;0.00;0.62;0.00;0.00;0.62;5.60;4.03;;;25.40;32.30;;;;;;2265922;61;20385;-60
2021/09/04 06:14:12;0.00;0.00;0.62;0.00;0.00;0.62;6.43;4.43;;;25.40;32.40;;;;;;2265467;61;20396;-60
2021/09/04 06:16:56;0.00;0.00;0.62;0.00;0.00;0.62;6.17;4.40;;;25.40;32.40;;;;;;2266042;61;20364;-60
2021/09/04 06:19:41;0.00;0.00;0.62;0.00;0.00;0.62;6.43;4.70;;;25.40;32.40;;;;;;2264840;61;20348;-60
2021/09/04 06:22:26;0.00;0.00;0.62;0.00;0.00;0.62;7.43;5.23;;;25.40;32.50;;;;;;2266191;61;20733;-60
2021/09/04 06:25:12;0.00;0.00;0.62;0.00;0.00;0.62;5.33;4.00;;;25.40;32.50;;;;;;2266148;61;20357;-60
2021/09/04 06:27:57;0.00;0.00;0.62;0.00;0.00;0.62;5.53;4.47;;;25.40;32.50;;;;;;2265065;61;20357;-57
2021/09/04 06:30:41;0.00;0.00;0.62;0.00;0.00;0.62;5.53;4.00;;;25.40;32.60;;;;;;2265918;61;20400;-59
2021/09/04 06:33:26;0.00;0.00;0.62;0.00;0.00;0.62;6.30;4.07;;;25.40;32.60;;;;;;2266234;61;20377;-59
2021/09/04 06:36:10;0.00;0.00;0.62;0.00;0.00;0.62;5.03;4.10;;;25.40;32.60;;;;;;2265119;61;20361;-60
2021/09/04 06:38:55;0.00;0.00;0.62;0.00;0.00;0.62;4.90;3.83;;;25.40;32.60;;;;;;2265943;61;20403;-60
2021/09/04 06:41:40;0.00;0.00;0.62;0.00;0.00;0.62;5.90;3.73;;;25.40;32.60;;;;;;2265078;61;20636;-57
2021/09/04 06:44:25;0.00;0.00;0.62;0.00;0.00;0.62;4.73;3.80;;;25.40;32.60;;;;;;2266087;61;20365;-57
2021/09/04 06:47:10;0.00;0.00;0.62;0.00;0.00;0.62;4.50;3.60;;;25.50;32.70;;;;;;2266057;61;20745;-60
2021/09/04 06:49:54;0.00;0.00;0.62;0.00;0.00;0.62;5.70;4.47;;;25.50;32.70;;;;;;2264846;61;20535;-60
2021/09/04 06:52:39;0.00;0.00;0.62;0.00;0.00;0.62;6.17;3.77;;;25.50;32.70;;;;;;2265907;61;20787;-57
2021/09/04 06:55:23;0.00;0.00;0.62;0.00;0.00;0.62;5.13;3.97;;;25.50;32.70;;;;;;2266081;61;20716;-58
2021/09/04 06:58:09;0.00;0.00;0.62;0.00;0.00;0.62;6.77;3.60;;;25.50;32.70;;;;;;2264869;61;20438;-59
2021/09/04 07:00:57;0.00;0.00;0.62;0.00;0.00;0.62;4.93;4.40;;;25.50;32.70;;;;;;2265823;61;20373;-58
2021/09/04 07:03:42;0.00;0.00;0.62;0.00;0.00;0.62;6.00;4.47;;;25.50;32.70;;;;;;2265637;61;20434;-56
2021/09/04 07:06:26;0.00;0.00;0.62;0.00;0.00;0.62;5.23;4.43;;;25.50;32.70;;;;;;2265928;61;20349;-60
2021/09/04 07:09:11;0.00;0.00;0.62;0.00;0.00;0.62;5.20;4.70;;;25.60;32.80;;;;;;2266115;61;20717;-59
2021/09/04 07:11:55;0.00;0.00;0.62;0.00;0.00;0.62;6.50;4.20;;;25.60;32.80;;;;;;2264670;61;20443;-60
2021/09/04 07:14:41;0.00;0.00;0.62;0.00;0.00;0.62;6.03;5.43;;;25.60;32.80;;;;;;2266046;61;20353;-59
2021/09/04 07:17:26;0.00;0.00;0.62;0.00;0.00;0.62;6.37;4.90;;;25.60;32.70;;;;;;2266095;61;20361;-59
2021/09/04 07:20:11;0.00;0.00;0.62;0.00;0.00;0.62;6.77;5.10;;;25.60;32.70;;;;;;2264599;61;20789;-59
2021/09/04 07:22:56;0.00;0.00;0.62;0.00;0.00;0.62;6.00;5.40;;;25.60;32.80;;;;;;2265990;61;20380;-59
2021/09/04 07:25:40;0.00;0.00;0.62;0.00;0.00;0.62;7.40;5.27;;;25.60;32.70;;;;;;2265798;61;20358;-59
2021/09/04 07:28:25;0.00;0.00;0.62;0.00;0.00;0.62;6.97;5.53;;;25.60;32.70;;;;;;2265223;61;20345;-58
2021/09/04 07:31:11;0.00;0.00;0.62;0.00;0.00;0.62;5.40;4.20;;;25.70;32.70;;;;;;2265835;61;20465;-61
2021/09/04 07:33:56;0.00;0.00;0.62;0.00;0.00;0.62;5.07;4.57;;;25.70;32.80;;;;;;2264679;61;20356;-58
2021/09/04 07:36:40;0.00;0.00;0.62;0.00;0.00;0.62;5.10;4.60;;;25.70;32.70;;;;;;2265820;61;20399;-59
2021/09/04 07:39:25;0.00;0.00;0.62;0.00;0.00;0.62;5.73;4.57;;;25.70;32.70;;;;;;2265818;61;20365;-58
2021/09/04 07:42:09;0.00;0.00;0.62;0.00;0.00;0.62;6.63;4.50;;;25.70;33.40;;;;;;2264648;61;20469;-59
2021/09/04 07:44:54;0.00;0.00;0.62;0.00;0.00;0.62;9.10;5.77;;;25.70;32.70;;;;;;2265927;61;20373;-59
2021/09/04 07:47:40;0.00;0.00;0.62;0.00;0.00;0.62;5.07;4.57;;;25.70;32.70;;;;;;2265761;61;20369;-58
2021/09/04 07:50:25;0.00;0.00;0.62;0.00;0.00;0.62;5.70;4.37;;;25.70;32.70;;;;;;2264986;61;20816;-58
2021/09/04 07:53:09;0.00;0.00;0.62;0.00;0.00;0.62;5.57;4.97;;;25.80;32.70;;;;;;2265794;61;20389;-61
2021/09/04 07:55:54;0.00;0.00;0.62;0.00;0.00;0.62;6.60;5.47;;;25.70;32.70;;;;;;2264532;61;20372;-59
2021/09/04 07:58:38;0.00;0.00;0.62;0.00;0.00;0.62;5.07;4.57;;;25.80;32.80;;;;;;2265926;61;20392;-59
2021/09/04 08:01:23;0.00;0.00;0.62;0.00;0.00;0.62;4.53;3.90;;;25.80;33.40;;;;;;2265761;61;20372;-59
2021/09/04 08:04:09;0.00;0.00;0.62;0.00;0.00;0.62;8.43;5.10;;;25.80;32.70;;;;;;2264583;61;20759;-61
2021/09/04 08:06:54;0.00;0.00;0.62;0.00;0.00;0.62;5.70;4.30;;;25.80;32.70;;;;;;2265585;61;20377;-59
2021/09/04 08:09:38;0.00;0.00;0.62;0.00;0.00;0.62;5.53;4.43;;;25.80;32.70;;;;;;2265762;61;20399;-59
2021/09/04 08:12:24;0.00;0.00;0.62;0.00;0.00;0.62;5.70;5.10;;;25.90;32.70;;;;;;2264922;61;20396;-60
2021/09/04 08:15:10;0.00;0.00;0.62;0.00;0.00;0.62;5.87;4.17;;;25.90;32.70;;;;;;2265844;61;20345;-58
2021/09/04 08:17:55;0.00;0.00;0.62;0.00;0.00;0.62;5.10;4.00;;;25.90;32.60;;;;;;2264473;61;20399;-60
2021/09/04 08:20:42;0.00;0.00;0.62;0.00;0.00;0.62;5.33;4.40;;;25.90;32.60;;;;;;2265800;61;20626;-60
2021/09/04 08:23:27;0.00;0.00;0.62;0.00;0.00;0.62;6.23;4.80;;;25.90;32.60;;;;;;2265789;61;20581;-59
2021/09/04 08:26:12;0.00;0.00;0.62;0.00;0.00;0.62;6.00;4.30;;;25.90;32.60;;;;;;2264574;61;20725;-59
2021/09/04 08:28:57;0.00;0.00;0.62;0.00;0.00;0.62;4.50;4.07;;;26.00;32.60;;;;;;2265908;61;20361;-59
2021/09/04 08:31:41;0.00;0.00;0.62;0.00;0.00;0.62;5.10;4.03;;;26.00;32.60;;;;;;2265594;61;20380;-59
2021/09/04 08:34:26;0.00;0.00;0.62;0.00;0.00;0.62;5.50;4.40;;;26.00;32.60;;;;;;2264687;61;20361;-60
2021/09/04 08:37:12;0.00;0.00;0.62;0.00;0.00;0.62;7.10;4.50;;;26.00;32.50;;;;;;2265737;61;20380;-61
2021/09/04 08:39:56;0.00;0.00;0.62;0.00;0.00;0.62;6.83;3.60;;;25.90;32.40;;;;;;2265191;61;20423;-59
2021/09/04 08:42:41;0.00;0.00;0.62;0.00;0.00;0.62;5.60;4.10;;;26.00;32.50;;;;;;2265846;61;20404;-61
2021/09/04 08:45:26;0.00;0.00;0.62;0.00;0.00;0.62;4.73;4.17;;;26.00;32.50;;;;;;2265599;61;20399;-61
2021/09/04 08:48:11;0.00;0.00;0.62;0.00;0.00;0.62;6.27;3.77;;;26.00;32.50;;;;;;2264637;61;20392;-60
2021/09/04 08:50:56;0.00;0.00;0.62;0.00;0.00;0.62;9.37;4.97;;;26.00;32.50;;;;;;2265567;61;20403;-60
2021/09/04 08:53:42;0.00;0.00;0.62;0.00;0.00;0.62;5.23;4.00;;;26.00;32.50;;;;;;2265657;61;20380;-61
2021/09/04 08:56:27;0.00;0.00;0.62;0.00;0.00;0.62;7.63;4.00;;;26.00;32.50;;;;;;2264640;61;20578;-58
2021/09/04 08:59:11;0.00;0.00;0.62;0.00;0.00;0.62;4.30;3.90;;;26.00;32.50;;;;;;2266449;61;20381;-58
2021/09/04 09:01:57;0.00;0.00;0.62;0.00;0.00;0.62;6.43;4.37;;;26.00;32.50;;;;;;2265986;61;20384;-61
2021/09/04 09:04:48;0.00;0.00;0.62;0.00;0.00;0.62;3.73;3.13;;;26.00;32.50;;;;;;2266363;61;20395;-60
2021/09/04 09:07:41;0.00;0.00;0.62;0.00;0.00;0.62;4.60;3.17;;;26.00;32.60;;;;;;2266371;61;20420;-61
2021/09/04 09:10:35;0.00;0.00;0.62;0.00;0.00;0.62;5.00;3.80;;;26.10;32.60;;;;;;2265056;61;20422;-61
2021/09/04 09:13:21;0.00;0.00;0.62;0.00;0.00;0.62;4.20;3.47;;;26.10;32.60;;;;;;2266228;61;20606;-61
2021/09/04 09:16:13;0.00;0.00;0.62;0.00;0.00;0.62;4.60;3.90;;;26.10;32.60;;;;;;2266302;61;20356;-60
2021/09/04 09:18:59;0.00;0.00;0.62;0.00;0.00;0.62;6.57;4.03;;;26.10;32.60;;;;;;2265440;61;20353;-59
2021/09/04 09:21:44;0.00;0.00;0.62;0.00;0.00;0.62;4.97;4.03;;;26.20;32.70;;;;;;2266342;61;20380;-58
2021/09/04 09:24:29;0.00;0.00;0.62;0.00;0.00;0.62;5.37;4.13;;;26.10;32.30;;;;;;2265523;61;20717;-60
2021/09/04 09:27:15;0.00;0.00;0.62;0.00;0.00;0.62;6.83;4.17;;;26.10;32.10;;;;;;2263110;61;20720;-60
2021/09/04 09:29:59;0.00;0.00;0.62;0.00;0.00;0.62;5.40;4.00;;;26.10;32.00;;;;;;2266281;61;20449;-60
2021/09/04 09:32:53;0.00;0.00;0.62;0.00;0.00;0.62;4.67;3.57;;;26.10;31.90;;;;;;2265103;61;20439;-59
2021/09/04 09:35:41;0.00;0.00;0.62;0.00;0.00;0.62;6.63;3.67;;;26.10;32.10;;;;;;2266130;61;20365;-60
2021/09/04 09:38:27;0.00;0.00;0.62;0.00;0.00;0.62;7.70;4.20;;;26.10;32.10;;;;;;2266317;61;20377;-61
2021/09/04 09:41:12;0.00;0.00;0.62;0.00;0.00;0.62;4.00;3.60;;;26.10;32.20;;;;;;2265371;61;20755;-62
2021/09/04 09:43:58;0.00;0.00;0.62;0.00;0.00;0.62;6.17;4.20;;;26.10;32.20;;;;;;2266289;61;20476;-61
2021/09/04 09:46:48;0.00;0.00;0.62;0.00;0.00;0.62;4.47;3.87;;;26.10;32.20;;;;;;2265204;61;20593;-62
2021/09/04 09:49:35;0.00;0.00;0.62;0.00;0.00;0.62;7.77;5.00;;;26.10;32.20;;;;;;2266102;61;20372;-61
2021/09/04 09:52:20;0.00;0.00;0.62;0.00;0.00;0.62;7.13;4.07;;;26.10;32.00;;;;;;2265760;61;20462;-61
2021/09/04 09:55:06;0.00;0.00;0.62;0.00;0.00;0.62;4.23;3.43;;;26.10;31.80;;;;;;2265099;61;20561;-61
2021/09/04 09:57:52;0.00;0.00;0.62;0.00;0.00;0.62;4.40;3.60;;;26.10;31.70;;;;;;2266250;61;20383;-62
2021/09/04 10:00:39;0.00;0.00;0.62;0.00;0.00;0.62;4.27;3.57;;;26.10;31.50;;;;;;2266158;61;20578;-61
2021/09/04 10:03:26;0.00;0.00;0.62;0.00;0.00;0.62;5.50;3.47;;;26.10;31.50;;;;;;2265300;61;20380;-61
2021/09/04 10:06:11;0.00;0.00;0.62;0.00;0.00;0.62;5.90;3.27;;;26.10;31.50;;;;;;2266306;61;20349;-61
2021/09/04 10:08:57;0.00;0.00;0.62;0.00;0.00;0.62;7.20;3.83;;;26.10;31.60;;;;;;2264863;61;20505;-61
2021/09/04 10:11:41;0.00;0.00;0.62;0.00;0.00;0.62;5.10;3.40;;;26.10;31.60;;;;;;2265950;61;20376;-61
2021/09/04 10:14:26;0.00;0.00;0.62;0.00;0.00;0.62;4.90;3.43;;;26.00;31.40;;;;;;2266264;61;20408;-61
2021/09/04 10:17:12;0.00;0.00;0.62;0.00;0.00;0.62;4.87;3.63;;;26.10;31.50;;;;;;2264730;61;20350;-61
2021/09/04 10:19:57;0.00;0.00;0.62;0.00;0.00;0.62;3.90;2.83;;;26.00;31.40;;;;;;2266050;61;20443;-61
2021/09/04 10:22:44;0.00;0.00;0.62;0.00;0.00;0.62;5.27;3.50;;;26.10;31.50;;;;;;2266215;61;20374;-61
2021/09/04 10:25:33;0.00;0.00;0.62;0.00;0.00;0.62;6.50;3.70;;;26.10;32.10;;;;;;2264944;61;20637;-61
2021/09/04 10:28:18;0.00;0.00;0.62;0.00;0.00;0.62;4.40;4.00;;;26.10;31.50;;;;;;2266196;61;20721;-61
2021/09/04 10:31:02;0.00;0.00;0.62;0.00;0.00;0.62;7.23;3.30;;;26.10;31.40;;;;;;2265044;61;20360;-62
2021/09/04 10:33:49;0.00;0.00;0.62;0.00;0.00;0.62;4.80;3.40;;;26.10;31.30;;;;;;2266081;61;20384;-60
2021/09/04 10:36:33;0.00;0.00;0.62;0.00;0.00;0.62;5.50;3.90;;;26.10;31.30;;;;;;2266124;61;20369;-62
2021/09/04 10:39:20;0.00;0.00;0.62;0.00;0.00;0.62;4.23;3.33;;;26.10;31.30;;;;;;2264680;61;20476;-62
2021/09/04 10:42:06;0.00;0.00;0.62;0.00;0.00;0.62;5.67;4.07;;;26.10;31.20;;;;;;2266021;61;20749;-62
2021/09/04 10:44:57;0.00;0.00;0.62;0.00;0.00;0.62;4.43;4.00;;;26.10;30.80;;;;;;2266081;61;20709;-62
2021/09/04 10:47:44;0.00;0.00;0.62;0.00;0.00;0.62;7.87;4.13;;;26.10;30.80;;;;;;2264963;61;20361;-61
2021/09/04 10:50:32;0.00;0.00;0.62;0.00;0.00;0.62;5.77;3.73;;;26.10;31.10;;;;;;2265928;61;20357;-61
2021/09/04 10:53:40;0.00;0.00;0.62;0.00;0.00;0.62;6.07;3.97;;;26.10;31.10;;;;;;2264842;61;20615;-62